Time;durP1;ratioP1;P1;durP2;ratioP2;P2;SDS_P1;SDS_P2;PMS_P1;PMS_P2;Temp;Humidity;BMP_temperature;BMP_pressure;BME280_temperature;BME280_humidity;BME280_pressure;Samples;Min_cycle;Max_cycle;Signal;HPM_P1;HPM_P2
2022/10/12 00:01:58;;;;;;;16.37;12.87;;;;;;;15.22;94.34;98807.69;5167229;23;20582;-94
2022/10/12 00:04:01;;;;;;;17.20;13.00;;;;;;;15.15;95.04;98805.59;5166662;23;21157;-96
2022/10/12 00:06:07;;;;;;;18.20;12.20;;;;;;;15.16;95.42;98809.91;5167522;23;20614;-95
2022/10/12 00:08:11;;;;;;;22.77;14.27;;;;;;;15.14;94.70;98809.19;5168011;23;20990;-96
2022/10/12 00:10:16;;;;;;;18.03;12.80;;;;;;;15.16;94.31;98808.09;5192793;22;21002;-96
2022/10/12 00:12:19;;;;;;;18.40;13.40;;;;;;;15.15;94.50;98800.34;5165496;23;20558;-95
2022/10/12 00:14:24;;;;;;;18.03;13.07;;;;;;;15.15;94.26;98795.06;5164414;23;21121;-94
2022/10/12 00:16:30;;;;;;;17.70;12.70;;;;;;;15.15;93.43;98801.19;5163013;23;20753;-95
2022/10/12 00:18:34;;;;;;;17.57;12.97;;;;;;;15.13;94.11;98802.25;5165266;23;20590;-95
2022/10/12 00:20:37;;;;;;;19.17;12.83;;;;;;;15.12;95.27;98806.69;5190153;22;20581;-94
2022/10/12 00:22:41;;;;;;;17.87;13.03;;;;;;;15.14;94.21;98810.00;5163988;23;20638;-95
2022/10/12 00:24:45;;;;;;;16.13;13.50;;;;;;;15.13;94.55;98810.13;5189987;22;20599;-95
2022/10/12 00:26:50;;;;;;;14.80;12.27;;;;;;;15.10;95.76;98805.94;5165790;23;21096;-96
2022/10/12 00:28:58;;;;;;;15.40;12.87;;;;;;;15.07;95.17;98806.16;5192021;22;20688;-95
2022/10/12 00:31:08;;;;;;;16.10;12.70;;;;;;;15.06;93.83;98798.41;5166205;23;20682;-95
2022/10/12 00:33:11;;;;;;;19.23;13.67;;;;;;;15.06;95.88;98801.03;5168551;23;20751;-94
2022/10/12 00:35:15;;;;;;;17.97;13.20;;;;;;;15.07;94.84;98804.50;5166226;23;20849;-95
2022/10/12 00:37:19;;;;;;;19.10;14.33;;;;;;;15.07;93.80;98802.72;5191974;22;21132;-94
2022/10/12 00:39:23;;;;;;;15.77;12.20;;;;;;;15.09;95.63;98801.66;5192475;22;20877;-96
2022/10/12 00:41:28;;;;;;;18.90;13.03;;;;;;;15.07;95.00;98799.25;5193046;22;20617;-95
2022/10/12 00:43:36;;;;;;;19.23;13.60;;;;;;;15.07;94.51;98801.88;5195415;22;20601;-96
2022/10/12 00:45:40;;;;;;;18.37;12.47;;;;;;;15.07;94.15;98805.34;5169037;23;20613;-96
2022/10/12 00:47:49;;;;;;;21.97;14.20;;;;;;;15.07;95.72;98798.28;5168254;23;21052;-96
2022/10/12 00:49:58;;;;;;;24.27;21.00;;;;;;;15.04;95.55;98802.94;5170936;23;20609;-95
2022/10/12 00:52:06;;;;;;;20.57;16.47;;;;;;;15.01;94.09;98797.09;5194588;22;20644;-96
2022/10/12 00:54:13;;;;;;;19.27;14.00;;;;;;;15.05;95.73;98799.38;5169305;23;21132;-94
2022/10/12 00:56:19;;;;;;;19.47;14.10;;;;;;;15.07;95.89;98808.78;5193611;22;21107;-95
2022/10/12 00:58:22;;;;;;;19.03;14.40;;;;;;;15.06;95.56;98793.13;5169899;23;20564;-96
2022/10/12 01:00:26;;;;;;;18.07;14.00;;;;;;;15.06;96.05;98800.19;5169196;23;20625;-96
2022/10/12 01:02:32;;;;;;;17.50;12.93;;;;;;;15.11;94.39;98806.78;5167743;23;20590;-95
2022/10/12 01:04:38;;;;;;;18.70;12.90;;;;;;;15.08;94.79;98799.13;5166582;23;20615;-95
2022/10/12 01:06:42;;;;;;;22.60;14.00;;;;;;;15.07;94.67;98799.25;5193255;22;20647;-96
2022/10/12 01:08:46;;;;;;;15.27;13.27;;;;;;;15.05;94.75;98790.63;5166161;23;20941;-95
2022/10/12 01:10:50;;;;;;;17.00;13.00;;;;;;;15.07;94.63;98798.28;5218941;22;21077;-95
2022/10/12 01:12:53;;;;;;;15.07;12.43;;;;;;;15.06;93.99;98800.19;5169031;23;21249;-96
2022/10/12 01:14:57;;;;;;;23.10;13.13;;;;;;;15.08;94.51;98801.75;5165469;23;20629;-95
2022/10/12 01:17:08;;;;;;;17.37;13.10;;;;;;;15.04;95.03;98797.69;5168123;23;20617;-96
2022/10/12 01:19:23;;;;;;;19.00;13.50;;;;;;;15.04;93.30;98789.78;5167877;23;21164;-95
2022/10/12 01:21:29;;;;;;;20.80;12.97;;;;;;;15.05;94.06;98796.75;5170620;23;20589;-95
2022/10/12 01:24:01;;;;;;;15.60;13.40;;;;;;;14.99;95.32;98784.06;5193769;22;20663;-95
2022/10/12 01:26:30;;;;;;;18.47;14.00;;;;;;;14.98;94.95;98790.25;5168514;23;20606;-96
2022/10/12 01:28:39;;;;;;;19.00;14.67;;;;;;;14.95;95.82;98792.28;5217675;22;20581;-96
2022/10/12 01:30:47;;;;;;;18.70;13.67;;;;;;;14.91;94.68;98789.03;5172086;22;20586;-96
2022/10/12 01:33:18;;;;;;;18.50;14.33;;;;;;;14.91;95.09;98786.41;5171541;23;20672;-94
2022/10/12 01:35:25;;;;;;;19.27;14.60;;;;;;;14.84;95.60;98774.69;5195276;22;20632;-95
2022/10/12 01:37:35;;;;;;;19.37;14.80;;;;;;;14.88;94.13;98789.25;5193928;22;20593;-95
2022/10/12 01:39:42;;;;;;;19.70;14.70;;;;;;;14.84;93.94;98779.94;5170571;23;20611;-96
2022/10/12 01:41:48;;;;;;;20.53;15.07;;;;;;;14.83;95.39;98783.50;5195030;22;20565;-96
2022/10/12 01:43:52;;;;;;;18.00;13.80;;;;;;;14.83;94.57;98780.88;5168978;23;20581;-95
2022/10/12 01:46:06;;;;;;;17.27;14.50;;;;;;;14.81;94.71;98772.28;5195064;22;21148;-96
2022/10/12 01:48:11;;;;;;;19.10;14.43;;;;;;;14.79;93.78;98775.97;5169325;23;20602;-96
2022/10/12 01:50:17;;;;;;;19.17;14.63;;;;;;;14.76;94.23;98773.56;5173799;22;20578;-95
2022/10/12 01:52:28;;;;;;;18.03;14.20;;;;;;;14.72;94.34;98778.22;5198698;22;20580;-95
2022/10/12 01:54:41;;;;;;;18.30;14.30;;;;;;;14.66;96.07;98781.31;5173574;23;21361;-95
2022/10/12 01:56:53;;;;;;;18.23;13.93;;;;;;;14.65;94.43;98778.78;5196580;22;20625;-96
2022/10/12 01:59:04;;;;;;;24.43;14.70;;;;;;;14.63;95.18;98773.66;5174886;22;20584;-95
2022/10/12 02:01:20;;;;;;;18.57;14.23;;;;;;;14.59;95.75;98770.53;5171009;22;20578;-94
2022/10/12 02:03:28;;;;;;;20.57;14.13;;;;;;;14.55;95.68;98772.53;5172710;23;20606;-93
2022/10/12 02:05:37;;;;;;;19.00;13.97;;;;;;;14.52;95.51;98771.91;5196444;22;20922;-94
2022/10/12 02:07:43;;;;;;;16.50;14.23;;;;;;;14.44;95.94;98763.78;5174126;23;20641;-95
2022/10/12 02:09:48;;;;;;;15.10;12.30;;;;;;;14.36;96.37;98768.75;5175016;23;20567;-96
2022/10/12 02:11:58;;;;;;;16.20;13.10;;;;;;;14.30;95.67;98763.94;5199251;22;20578;-96
2022/10/12 02:14:08;;;;;;;18.77;13.03;;;;;;;14.22;96.43;98763.63;5174057;23;20681;-96
2022/10/12 02:16:16;;;;;;;18.20;12.80;;;;;;;14.16;96.86;98771.94;5175325;23;20586;-95
2022/10/12 02:18:21;;;;;;;16.40;13.23;;;;;;;14.04;96.43;98754.44;5200945;22;20571;-96
2022/10/12 02:20:28;;;;;;;19.07;13.97;;;;;;;13.99;96.55;98753.94;5173298;23;20565;-96
2022/10/12 02:22:52;;;;;;;17.23;12.67;;;;;;;13.96;97.56;98766.44;5177170;22;20574;-95
2022/10/12 02:24:58;;;;;;;14.60;12.93;;;;;;;13.83;97.41;98749.88;5174453;23;20587;-93
2022/10/12 02:27:02;;;;;;;17.00;12.70;;;;;;;13.79;97.92;98751.06;5172045;23;20613;-96
2022/10/12 02:29:10;;;;;;;17.70;13.07;;;;;;;13.78;97.80;98758.06;5168575;23;20585;-95
2022/10/12 02:31:20;;;;;;;19.63;13.90;;;;;;;13.74;98.19;98756.63;5191781;22;20655;-96
2022/10/12 02:33:26;;;;;;;24.00;13.00;;;;;;;13.67;97.80;98752.75;5192617;22;20553;-96
2022/10/12 02:35:35;;;;;;;20.60;12.93;;;;;;;13.68;98.04;98756.19;5167279;22;20623;-96
2022/10/12 02:37:41;;;;;;;15.83;11.83;;;;;;;13.63;97.97;98753.06;5195213;22;20567;-94
2022/10/12 02:39:49;;;;;;;16.13;12.50;;;;;;;13.62;98.48;98745.31;5169651;23;20603;-96
2022/10/12 02:41:55;;;;;;;15.20;11.70;;;;;;;13.58;98.39;98746.50;5193637;22;20957;-96
2022/10/12 02:44:01;;;;;;;20.50;12.60;;;;;;;13.56;97.94;98748.34;5169094;23;21117;-93
2022/10/12 02:46:07;;;;;;;18.33;12.83;;;;;;;13.51;97.59;98742.59;5170437;23;20569;-95
2022/10/12 02:48:16;;;;;;;17.00;11.30;;;;;;;13.49;97.47;98750.56;5171040;23;20584;-96
2022/10/12 02:50:21;;;;;;;16.57;12.30;;;;;;;13.46;97.99;98750.78;5195718;22;20571;-96
2022/10/12 02:52:27;;;;;;;18.00;12.70;;;;;;;13.47;97.71;98747.22;5194415;22;20571;-94
2022/10/12 02:54:34;;;;;;;18.67;13.97;;;;;;;13.40;98.29;98738.09;5198317;22;20793;-96
2022/10/12 02:56:43;;;;;;;17.77;13.23;;;;;;;13.37;98.20;98740.13;5173210;23;20582;-95
2022/10/12 02:58:48;;;;;;;17.70;12.70;;;;;;;13.37;98.82;98740.13;5170618;23;20605;-94
2022/10/12 03:00:53;;;;;;;15.30;12.40;;;;;;;13.31;98.26;98732.69;5196373;22;20587;-96
2022/10/12 03:02:57;;;;;;;16.43;12.70;;;;;;;13.28;97.25;98736.34;5171881;22;20577;-96
2022/10/12 03:05:04;;;;;;;16.00;12.33;;;;;;;13.24;98.25;98731.41;5171203;22;20584;-94
2022/10/12 03:07:09;;;;;;;17.87;12.83;;;;;;;13.23;98.09;98732.38;5171385;22;20623;-96
2022/10/12 03:09:14;;;;;;;16.77;12.70;;;;;;;13.24;98.58;98744.50;5199558;22;20608;-95
2022/10/12 03:11:18;;;;;;;18.77;13.10;;;;;;;13.24;98.33;98744.50;5173033;23;20634;-96
2022/10/12 03:13:22;;;;;;;17.13;12.23;;;;;;;13.27;99.79;98744.28;5196933;22;20606;-96
2022/10/12 03:15:27;;;;;;;18.70;12.70;;;;;;;13.24;98.69;98745.38;5169325;23;20572;-95
2022/10/12 03:17:31;;;;;;;17.03;12.77;;;;;;;13.29;99.06;98763.34;5172217;23;20600;-96
2022/10/12 03:19:38;;;;;;;18.07;13.20;;;;;;;13.27;98.88;98762.63;5223012;22;20978;-96
2022/10/12 03:21:44;;;;;;;22.80;13.90;;;;;;;13.28;99.07;98759.09;5171073;23;20663;-96
2022/10/12 03:23:48;;;;;;;16.63;13.07;;;;;;;13.27;99.06;98767.88;5169444;23;20576;-96
2022/10/12 03:25:52;;;;;;;19.73;14.30;;;;;;;13.25;99.50;98761.91;5195256;22;20634;-96
2022/10/12 03:27:56;;;;;;;23.83;13.30;;;;;;;13.27;99.40;98766.09;5169560;23;20699;-95
2022/10/12 03:30:00;;;;;;;21.53;12.47;;;;;;;13.27;100.00;98762.63;5171893;23;20632;-96
2022/10/12 03:32:04;;;;;;;18.37;13.17;;;;;;;13.26;99.88;98763.56;5169686;23;20572;-96
2022/10/12 03:34:08;;;;;;;21.57;13.37;;;;;;;13.23;99.46;98758.56;5169954;23;20573;-93
2022/10/12 03:36:11;;;;;;;16.87;12.00;;;;;;;13.24;99.51;98765.47;5168565;23;20583;-95
2022/10/12 03:38:18;;;;;;;17.00;13.13;;;;;;;13.24;99.71;98768.06;5170203;23;20652;-95
2022/10/12 03:40:22;;;;;;;18.20;12.70;;;;;;;13.25;99.67;98775.00;5168730;23;20574;-94
2022/10/12 03:42:26;;;;;;;23.87;14.30;;;;;;;13.26;99.38;98776.66;5169904;23;20581;-95
2022/10/12 03:44:30;;;;;;;19.13;12.97;;;;;;;13.24;99.51;98768.94;5169322;23;20679;-95
2022/10/12 03:46:34;;;;;;;16.00;11.97;;;;;;;13.21;99.79;98760.44;5169538;23;20632;-96
2022/10/12 03:48:39;;;;;;;17.80;12.73;;;;;;;13.24;99.15;98762.84;5171649;23;20616;-96
2022/10/12 03:50:43;;;;;;;18.20;12.20;;;;;;;13.22;99.53;98764.75;5166942;23;20950;-94
2022/10/12 03:52:46;;;;;;;15.97;12.20;;;;;;;13.23;99.70;98766.44;5168988;23;20620;-96
2022/10/12 03:54:51;;;;;;;16.00;12.23;;;;;;;13.21;100.00;98768.28;5194919;22;20580;-94
2022/10/12 03:56:55;;;;;;;14.60;12.13;;;;;;;13.19;99.80;98767.56;5169101;23;20583;-96
2022/10/12 03:59:01;;;;;;;15.63;11.73;;;;;;;13.19;99.38;98770.19;5195008;22;20622;-96
2022/10/12 04:01:05;;;;;;;21.53;12.70;;;;;;;13.16;99.33;98767.78;5167091;23;20596;-96
2022/10/12 04:03:09;;;;;;;19.50;13.03;;;;;;;13.17;99.37;98769.47;5194419;22;20579;-95
2022/10/12 04:05:13;;;;;;;16.17;13.33;;;;;;;13.19;99.92;98772.81;5167919;23;20627;-95
2022/10/12 04:07:16;;;;;;;15.97;13.20;;;;;;;13.15;99.39;98765.25;5167588;23;20955;-96
2022/10/12 04:09:20;;;;;;;19.30;13.57;;;;;;;13.18;99.24;98768.50;5193299;22;20651;-95
2022/10/12 04:11:25;;;;;;;19.80;13.47;;;;;;;13.14;99.40;98767.03;5192886;22;20687;-94
2022/10/12 04:13:29;;;;;;;19.43;13.13;;;;;;;13.08;99.38;98761.38;5166423;23;20580;-96
2022/10/12 04:15:33;;;;;;;15.37;12.87;;;;;;;13.09;99.27;98763.03;5166300;23;20580;-95
2022/10/12 04:17:37;;;;;;;15.90;12.63;;;;;;;13.04;98.41;98765.16;5164462;23;20643;-95
2022/10/12 04:19:41;;;;;;;27.03;13.53;;;;;;;13.01;98.61;98762.75;5166012;23;20909;-96
2022/10/12 04:21:44;;;;;;;18.40;12.60;;;;;;;13.02;98.99;98764.38;5166616;23;20579;-95
2022/10/12 04:23:48;;;;;;;16.83;12.53;;;;;;;12.99;99.44;98762.84;5165829;23;20571;-96
2022/10/12 04:25:52;;;;;;;16.70;13.10;;;;;;;13.00;98.36;98767.13;5167066;23;20606;-96
2022/10/12 04:27:57;;;;;;;15.63;12.40;;;;;;;12.99;99.11;98769.84;5167484;23;20615;-93
2022/10/12 04:30:04;;;;;;;16.30;13.50;;;;;;;12.93;98.83;98759.78;5193227;22;20571;-96
2022/10/12 04:32:08;;;;;;;17.03;13.30;;;;;;;12.92;99.31;98769.41;5172770;23;20679;-96
2022/10/12 04:34:34;;;;;;;18.90;13.80;;;;;;;12.92;100.00;98768.59;5224463;22;20597;-96
2022/10/12 04:36:52;;;;;;;20.13;14.50;;;;;;;12.94;100.00;98778.00;5201297;22;20627;-94
2022/10/12 04:38:56;;;;;;;19.40;14.80;;;;;;;12.92;99.52;98773.81;5189780;22;20579;-95
2022/10/12 05:15:28;;;;;;;19.77;14.20;;;;;;;12.81;100.00;98795.44;5241534;22;20604;-93
2022/10/12 05:17:33;;;;;;;18.77;14.13;;;;;;;12.82;100.00;98793.66;5190925;22;20575;-93
2022/10/12 05:19:36;;;;;;;17.03;14.63;;;;;;;12.81;100.00;98794.63;5216304;22;20984;-93
2022/10/12 05:21:41;;;;;;;17.00;13.73;;;;;;;12.83;100.00;98788.34;5241500;22;21110;-93
2022/10/12 05:23:45;;;;;;;17.27;13.60;;;;;;;12.83;100.00;98798.81;5241674;22;20580;-93
2022/10/12 05:25:48;;;;;;;18.07;14.80;;;;;;;12.86;100.00;98798.63;5189140;22;20992;-93
2022/10/12 05:27:51;;;;;;;19.13;15.03;;;;;;;12.85;100.00;98798.72;5190332;22;20612;-93
2022/10/12 05:29:54;;;;;;;17.33;13.97;;;;;;;12.87;100.00;98799.44;5165094;22;20569;-93
2022/10/12 05:32:00;;;;;;;20.57;14.97;;;;;;;12.89;100.00;98810.69;5189950;22;20675;-92
2022/10/12 05:34:03;;;;;;;19.07;14.27;;;;;;;12.90;100.00;98802.72;5190436;22;20581;-93
2022/10/12 05:36:07;;;;;;;24.23;15.87;;;;;;;12.91;100.00;98796.53;5189761;22;20607;-93
2022/10/12 05:38:11;;;;;;;21.50;14.60;;;;;;;12.91;100.00;98804.38;5242365;22;20573;-93
2022/10/12 05:40:29;;;;;;;19.73;15.73;;;;;;;12.92;100.00;98800.84;5191548;22;20691;-96
2022/10/12 05:45:36;;;;;;;20.67;15.20;;;;;;;12.95;100.00;98800.63;5267806;22;20647;-92
2022/10/12 05:47:41;;;;;;;18.33;14.73;;;;;;;12.96;100.00;98791.84;5240154;22;20596;-91
2022/10/12 05:49:44;;;;;;;22.47;15.27;;;;;;;12.98;100.00;98794.38;5240964;22;20566;-93
2022/10/12 05:51:49;;;;;;;18.77;13.93;;;;;;;12.99;100.00;98796.88;5240008;22;20569;-91
2022/10/12 05:53:52;;;;;;;23.27;14.90;;;;;;;13.02;100.00;98794.06;5268109;22;20612;-91
2022/10/12 05:55:56;;;;;;;16.70;13.93;;;;;;;13.05;100.00;98806.09;5214542;22;20588;-91
2022/10/12 05:57:59;;;;;;;18.83;14.50;;;;;;;13.06;100.00;98799.91;5214726;22;20605;-92
2022/10/12 06:00:02;;;;;;;17.97;13.77;;;;;;;13.08;100.00;98811.13;5240497;22;20667;-92
2022/10/12 06:02:13;;;;;;;19.23;14.63;;;;;;;13.10;100.00;98802.22;5240645;22;21290;-91
2022/10/12 06:04:17;;;;;;;17.40;14.50;;;;;;;13.12;100.00;98805.56;5239328;22;20593;-92
2022/10/12 06:06:21;;;;;;;19.70;14.50;;;;;;;13.13;100.00;98804.66;5239627;22;20604;-92
2022/10/12 06:08:24;;;;;;;17.37;13.87;;;;;;;13.18;100.00;98812.19;5214598;22;20617;-92
2022/10/12 06:10:27;;;;;;;19.67;15.00;;;;;;;13.21;100.00;98813.69;5240124;22;20569;-92
2022/10/12 06:12:32;;;;;;;17.90;14.53;;;;;;;13.25;100.00;98814.31;5239967;22;20577;-93
2022/10/12 06:14:35;;;;;;;21.10;15.00;;;;;;;13.27;100.00;98818.47;5239838;22;21158;-93
2022/10/12 06:16:38;;;;;;;17.03;14.20;;;;;;;13.30;100.00;98814.81;5240026;22;20597;-93
2022/10/12 06:18:41;;;;;;;19.70;14.10;;;;;;;13.32;100.00;98816.41;5239887;22;20603;-93
2022/10/12 06:20:48;;;;;;;26.47;14.57;;;;;;;13.35;100.00;98818.81;5212908;22;20579;-94
2022/10/12 06:22:51;;;;;;;18.60;14.77;;;;;;;13.36;100.00;98817.03;5207907;22;21188;-93
2022/10/12 06:24:54;;;;;;;17.27;14.90;;;;;;;13.40;100.00;98819.34;5238834;22;21101;-93
2022/10/12 06:26:57;;;;;;;22.80;14.90;;;;;;;13.43;100.00;98818.31;5267056;22;20649;-92
2022/10/12 06:29:00;;;;;;;17.90;14.47;;;;;;;13.45;100.00;98821.66;5240073;22;21207;-93
2022/10/12 06:33:54;;;;;;;19.17;15.80;;;;;;;13.48;99.96;98817.03;5248724;22;20577;-93
2022/10/12 06:35:59;;;;;;;20.13;15.07;;;;;;;13.47;100.00;98825.00;5245119;22;20910;-94
2022/10/12 06:38:02;;;;;;;17.23;14.97;;;;;;;13.45;100.00;98829.50;5219119;22;21198;-94
2022/10/12 06:40:07;;;;;;;20.50;15.07;;;;;;;13.44;100.00;98826.06;5219951;22;20676;-94
2022/10/12 06:42:10;;;;;;;19.17;14.97;;;;;;;13.47;100.00;98827.59;5219221;22;20601;-93
2022/10/12 06:44:24;;;;;;;19.50;14.73;;;;;;;13.44;100.00;98820.81;5219748;22;20576;-93
2022/10/12 06:46:27;;;;;;;20.10;17.27;;;;;;;13.50;99.89;98830.03;5219118;22;20585;-91
2022/10/12 06:48:30;;;;;;;20.57;14.00;;;;;;;13.52;100.00;98829.00;5219778;22;20620;-91
2022/10/12 06:50:34;;;;;;;20.10;15.87;;;;;;;13.51;100.00;98824.69;5271026;22;20581;-91
2022/10/12 06:52:38;;;;;;;20.73;16.10;;;;;;;13.58;100.00;98830.38;5244842;22;20573;-90
2022/10/12 06:54:42;;;;;;;27.37;17.80;;;;;;;13.62;100.00;98830.06;5244865;22;20627;-91
2022/10/12 06:56:45;;;;;;;17.20;14.20;;;;;;;13.63;100.00;98828.25;5219032;22;20586;-91
2022/10/12 06:58:48;;;;;;;21.00;14.73;;;;;;;13.65;99.93;98840.28;5244869;22;20606;-89
2022/10/12 07:00:52;;;;;;;17.10;14.73;;;;;;;13.66;100.00;98832.31;5218319;22;21153;-91
2022/10/12 07:02:55;;;;;;;20.90;15.00;;;;;;;13.70;100.00;98823.31;5218959;22;20574;-91
2022/10/12 07:04:58;;;;;;;21.07;15.47;;;;;;;13.79;100.00;98830.53;5218993;22;20592;-91
2022/10/12 07:07:01;;;;;;;22.30;16.50;;;;;;;13.84;100.00;98827.59;5245483;22;20692;-90
2022/10/12 07:09:06;;;;;;;20.60;16.70;;;;;;;13.86;100.00;98831.81;5244595;22;20614;-90
2022/10/12 07:11:11;;;;;;;18.20;15.77;;;;;;;13.96;100.00;98839.88;5244707;22;20588;-90
2022/10/12 07:13:14;;;;;;;21.40;15.60;;;;;;;14.00;100.00;98836.91;5218651;22;20579;-91
2022/10/12 07:15:17;;;;;;;19.00;15.37;;;;;;;14.02;100.00;98834.19;5218591;22;20572;-91
2022/10/12 07:17:23;;;;;;;19.73;15.90;;;;;;;14.04;99.85;98835.75;5218597;22;20574;-91
2022/10/12 07:19:26;;;;;;;23.63;16.20;;;;;;;14.02;99.43;98840.28;5244876;22;21141;-91
2022/10/12 07:21:29;;;;;;;18.93;14.33;;;;;;;14.02;100.00;98840.28;5272277;22;20550;-91
2022/10/12 07:23:34;;;;;;;17.60;14.53;;;;;;;14.09;100.00;98846.81;5218850;22;20626;-90
2022/10/12 07:25:38;;;;;;;21.70;15.40;;;;;;;14.15;99.50;98841.13;5244646;22;20635;-90
2022/10/12 07:27:41;;;;;;;21.37;15.07;;;;;;;14.16;100.00;98845.41;5244685;22;21033;-91
2022/10/12 07:29:44;;;;;;;19.33;16.20;;;;;;;14.26;100.00;98849.06;5244523;22;20615;-91
2022/10/12 07:31:47;;;;;;;19.53;15.17;;;;;;;14.29;99.99;98840.97;5272298;22;20564;-90
2022/10/12 07:33:54;;;;;;;20.47;15.37;;;;;;;14.28;99.04;98841.91;5245573;22;20563;-90
2022/10/12 07:35:57;;;;;;;20.30;15.57;;;;;;;14.32;100.00;98843.38;5245662;22;20578;-90
2022/10/12 07:38:20;;;;;;;19.47;15.80;;;;;;;14.35;100.00;98843.19;5219540;22;20571;-91
2022/10/12 07:40:25;;;;;;;19.73;15.57;;;;;;;14.40;99.72;98843.69;5272731;22;20900;-90
2022/10/12 07:42:29;;;;;;;21.90;15.50;;;;;;;14.42;100.00;98844.44;5218736;22;20583;-90
2022/10/12 07:44:33;;;;;;;19.07;15.00;;;;;;;14.43;99.91;98844.28;5272256;22;20576;-90
2022/10/12 07:46:36;;;;;;;20.03;16.37;;;;;;;14.51;100.00;98839.34;5218616;22;20572;-91
2022/10/12 07:48:40;;;;;;;16.83;14.40;;;;;;;14.59;100.00;98843.06;5244636;22;20914;-90
2022/10/12 07:50:50;;;;;;;20.83;14.30;;;;;;;14.62;100.00;98836.78;5218505;22;20610;-91
2022/10/12 07:52:54;;;;;;;23.27;15.77;;;;;;;14.66;100.00;98843.50;5244520;22;21137;-91
2022/10/12 07:54:57;;;;;;;20.90;16.33;;;;;;;14.68;99.15;98837.16;5244490;22;21156;-90
2022/10/12 07:57:00;;;;;;;23.47;15.10;;;;;;;14.71;99.85;98834.31;5244348;22;20589;-91
2022/10/12 07:59:04;;;;;;;17.97;15.90;;;;;;;14.76;100.00;98839.22;5218526;22;20622;-91
2022/10/12 08:01:08;;;;;;;20.50;15.50;;;;;;;14.83;100.00;98843.09;5218705;22;20583;-90
2022/10/12 08:03:12;;;;;;;20.37;15.97;;;;;;;14.91;99.33;98844.19;5272659;22;20681;-90
2022/10/12 08:05:16;;;;;;;22.30;16.40;;;;;;;14.99;98.95;98844.47;5271988;22;20555;-91
2022/10/12 08:07:19;;;;;;;23.10;15.70;;;;;;;15.10;98.75;98855.03;5218319;22;21111;-91
2022/10/12 08:09:22;;;;;;;20.10;15.93;;;;;;;15.18;98.25;98847.44;5244330;22;20648;-90
2022/10/12 08:11:26;;;;;;;21.93;15.77;;;;;;;15.34;99.59;98840.09;5244205;22;21151;-91
2022/10/12 08:13:29;;;;;;;20.87;17.00;;;;;;;15.48;98.15;98845.97;5218315;22;20645;-91
2022/10/12 08:15:34;;;;;;;21.43;17.00;;;;;;;15.51;96.91;98840.47;5218609;22;20605;-91
2022/10/12 08:17:37;;;;;;;25.67;16.80;;;;;;;15.55;98.78;98847.19;5218399;22;20589;-91
2022/10/12 08:19:40;;;;;;;22.23;17.47;;;;;;;15.61;96.38;98851.97;5244366;22;20609;-90
2022/10/12 08:21:44;;;;;;;22.33;17.00;;;;;;;15.67;97.24;98848.88;5244476;22;20556;-91
2022/10/12 08:23:47;;;;;;;23.37;17.73;;;;;;;15.73;96.49;98851.06;5244454;22;21036;-90
2022/10/12 08:25:54;;;;;;;25.60;17.97;;;;;;;15.80;96.99;98858.34;5218267;22;21116;-90
2022/10/12 08:27:58;;;;;;;20.43;17.37;;;;;;;15.86;96.62;98852.63;5244131;22;20869;-91
2022/10/12 08:30:01;;;;;;;22.77;17.87;;;;;;;15.93;97.54;98850.34;5218408;22;20958;-91
2022/10/12 08:32:06;;;;;;;22.37;17.50;;;;;;;16.02;96.24;98855.72;5244402;22;20930;-91
2022/10/12 08:34:09;;;;;;;26.90;19.13;;;;;;;16.06;96.19;98858.00;5218120;22;20630;-91
2022/10/12 08:36:13;;;;;;;22.60;17.13;;;;;;;16.09;96.65;98856.94;5218312;22;20682;-91
2022/10/12 08:38:16;;;;;;;25.70;18.33;;;;;;;16.06;96.48;98855.38;5218245;22;20918;-91
2022/10/12 08:40:31;;;;;;;27.23;19.10;;;;;;;16.03;95.12;98847.72;5218160;22;20581;-91
2022/10/12 08:42:42;;;;;;;25.80;19.53;;;;;;;16.07;95.53;98858.81;5244346;22;20569;-91
2022/10/12 08:45:11;;;;;;;26.77;19.30;;;;;;;16.12;95.84;98854.88;5244198;22;21122;-91
2022/10/12 08:47:18;;;;;;;26.83;19.43;;;;;;;16.26;96.79;98861.75;5244272;22;21076;-91
2022/10/12 08:49:25;;;;;;;25.67;19.37;;;;;;;16.39;96.45;98862.44;5218516;22;21107;-92
2022/10/12 08:51:31;;;;;;;27.17;20.90;;;;;;;16.42;94.45;98862.19;5218283;22;20614;-92
2022/10/12 08:53:45;;;;;;;29.33;21.63;;;;;;;16.42;94.58;98857.78;5219345;22;20586;-91
2022/10/12 08:55:48;;;;;;;26.70;21.27;;;;;;;16.49;94.11;98858.13;5218250;22;20587;-92
2022/10/12 08:57:52;;;;;;;29.27;21.50;;;;;;;16.62;95.44;98855.22;5218229;22;20579;-91
2022/10/12 08:59:55;;;;;;;28.60;21.43;;;;;;;16.81;95.00;98855.41;5218118;22;20642;-91
2022/10/12 09:02:03;;;;;;;28.70;21.80;;;;;;;17.18;95.17;98857.53;5218629;22;20585;-92
2022/10/12 09:04:16;;;;;;;32.00;21.80;;;;;;;17.48;95.24;98847.97;5218270;22;20576;-92
2022/10/12 09:06:20;;;;;;;31.50;22.20;;;;;;;17.71;93.86;98851.28;5218293;22;20632;-92
2022/10/12 09:08:31;;;;;;;26.63;19.90;;;;;;;17.85;92.13;98849.16;5193250;22;20593;-92
2022/10/12 09:10:44;;;;;;;38.10;21.43;;;;;;;18.08;92.54;98853.28;5218248;22;20654;-92
2022/10/12 09:12:55;;;;;;;25.53;20.50;;;;;;;18.12;89.67;98846.78;5218867;22;20894;-92
2022/10/12 09:15:03;;;;;;;35.50;22.40;;;;;;;18.21;90.34;98843.38;5218661;22;20672;-92
2022/10/12 09:17:21;;;;;;;31.13;22.43;;;;;;;18.29;87.59;98846.19;5218418;22;20604;-92
2022/10/12 09:19:30;;;;;;;31.73;21.57;;;;;;;18.40;88.80;98838.97;5218726;22;20666;-92
2022/10/12 09:21:34;;;;;;;30.23;22.17;;;;;;;18.57;88.81;98841.81;5218904;22;20574;-95
2022/10/12 09:23:39;;;;;;;29.10;21.50;;;;;;;18.74;87.23;98849.09;5218287;22;20607;-91
2022/10/12 09:25:42;;;;;;;31.83;22.80;;;;;;;18.80;88.74;98845.06;5217649;22;20706;-93
2022/10/12 09:27:46;;;;;;;28.40;21.23;;;;;;;18.79;87.75;98852.16;5218499;22;20174;-94
2022/10/12 09:29:51;;;;;;;30.60;21.97;;;;;;;18.66;87.82;98841.00;5218426;22;20575;-93
2022/10/12 09:32:20;;;;;;;30.83;21.63;;;;;;;18.51;87.26;98847.66;5218248;22;20694;-93
2022/10/12 09:34:23;;;;;;;29.60;20.60;;;;;;;18.39;87.81;98833.81;5244221;22;20587;-92
2022/10/12 09:36:31;;;;;;;30.80;22.50;;;;;;;18.33;86.83;98847.56;5218152;22;20584;-92
2022/10/12 09:38:37;;;;;;;27.93;20.50;;;;;;;18.24;87.48;98843.13;5218141;22;21203;-91
2022/10/12 09:40:40;;;;;;;30.10;19.40;;;;;;;18.24;86.92;98851.03;5219762;22;20573;-91
2022/10/12 09:42:45;;;;;;;33.77;21.20;;;;;;;18.40;87.76;98841.63;5220106;22;20578;-93
2022/10/12 09:44:49;;;;;;;30.97;19.50;;;;;;;18.60;88.12;98851.28;5220035;22;20679;-94
2022/10/12 09:46:56;;;;;;;26.20;18.80;;;;;;;18.64;87.17;98848.25;5194590;22;20664;-94
2022/10/12 09:49:00;;;;;;;27.60;19.27;;;;;;;18.68;87.12;98852.28;5221160;22;20583;-95
2022/10/12 09:51:04;;;;;;;22.53;17.90;;;;;;;18.63;87.15;98853.66;5246126;22;21239;-93
2022/10/12 09:53:15;;;;;;;25.80;17.80;;;;;;;18.64;86.48;98852.69;5220005;22;20670;-92
2022/10/12 09:55:24;;;;;;;25.93;17.40;;;;;;;18.68;86.04;98852.28;5220708;22;20591;-93
2022/10/12 09:57:29;;;;;;;26.50;17.60;;;;;;;18.69;86.51;98848.66;5194278;22;20594;-94
2022/10/12 09:59:36;;;;;;;26.13;18.37;;;;;;;18.69;85.12;98853.13;5220075;22;20580;-94
2022/10/12 10:01:40;;;;;;;25.67;17.70;;;;;;;18.66;84.98;98840.19;5219918;22;20617;-92
2022/10/12 10:03:45;;;;;;;22.67;16.80;;;;;;;18.68;86.01;98854.91;5219819;22;20637;-94
2022/10/12 10:06:02;;;;;;;25.17;17.03;;;;;;;18.72;85.65;98848.41;5194743;22;20627;-94
2022/10/12 10:08:19;;;;;;;22.47;17.30;;;;;;;18.69;85.78;98843.38;5219660;22;20618;-93
2022/10/12 10:10:23;;;;;;;24.63;17.30;;;;;;;18.71;86.55;98846.72;5219148;22;21233;-94
2022/10/12 10:12:32;;;;;;;23.43;15.87;;;;;;;18.74;84.97;98848.25;5220291;22;20176;-94
2022/10/12 10:14:36;;;;;;;22.87;16.47;;;;;;;18.73;84.43;98847.41;5245645;22;20574;-92
2022/10/12 10:16:46;;;;;;;20.83;15.90;;;;;;;18.73;84.80;98852.69;5219490;22;20618;-92
2022/10/12 10:18:55;;;;;;;22.90;15.60;;;;;;;18.72;83.94;98845.75;5194697;22;20577;-93